createdAt,value
2023-04-07T00:01:23.756Z,1.18
2023-04-07T00:03:53.025Z,1.10
2023-04-07T00:06:22.172Z,1.03
2023-04-07T00:08:51.304Z,1.09
2023-04-07T00:11:20.608Z,1.02
2023-04-07T00:13:49.564Z,1.00
2023-04-07T00:16:22.292Z,1.02
2023-04-07T00:18:51.327Z,0.94
2023-04-07T00:21:20.260Z,1.04
2023-04-07T00:23:49.297Z,1.00
2023-04-07T00:26:18.302Z,0.94
2023-04-07T00:28:49.254Z,0.89
2023-04-07T00:31:19.701Z,0.92
2023-04-07T00:33:49.540Z,1.14
2023-04-07T00:36:18.762Z,1.11
2023-04-07T00:38:50.196Z,1.24
2023-04-07T00:41:19.200Z,1.31
2023-04-07T00:43:48.313Z,1.37
2023-04-07T00:46:17.679Z,1.31
2023-04-07T00:48:48.472Z,1.34
2023-04-07T00:51:17.658Z,1.37
2023-04-07T00:53:46.715Z,1.42
2023-04-07T00:56:16.074Z,1.32
2023-04-07T00:58:45.340Z,1.25
2023-04-07T01:01:20.208Z,1.20
2023-04-07T01:03:58.483Z,1.37
2023-04-07T01:06:32.657Z,1.42
2023-04-07T01:09:08.790Z,1.52
2023-04-07T01:11:44.474Z,1.53
2023-04-07T01:14:20.792Z,1.50
2023-04-07T01:16:59.094Z,1.38
2023-04-07T01:19:37.807Z,1.39
2023-04-07T01:22:12.857Z,1.50
2023-04-07T01:25:01.400Z,1.47
2023-04-07T01:27:44.134Z,1.46
2023-04-07T01:30:16.981Z,1.53
2023-04-07T01:32:52.051Z,1.46
2023-04-07T01:35:25.182Z,1.52
2023-04-07T01:37:55.358Z,1.50
2023-04-07T01:40:25.363Z,1.33
2023-04-07T01:42:55.579Z,1.40
2023-04-07T01:45:27.860Z,1.43
2023-04-07T01:47:57.232Z,1.49
2023-04-07T01:50:27.406Z,1.55
2023-04-07T01:52:57.428Z,1.56
2023-04-07T01:55:27.032Z,1.61
2023-04-07T01:58:09.431Z,1.65
2023-04-07T02:00:43.484Z,1.54
2023-04-07T02:03:33.247Z,1.56
2023-04-07T02:06:08.524Z,1.50
2023-04-07T02:08:41.659Z,1.49
2023-04-07T02:11:12.850Z,1.54
2023-04-07T02:13:45.512Z,1.45
2023-04-07T02:16:18.407Z,1.48
2023-04-07T02:18:48.816Z,1.65
2023-04-07T02:21:19.482Z,1.68
2023-04-07T02:23:48.706Z,1.77
2023-04-07T02:26:17.952Z,1.82
2023-04-07T02:28:46.905Z,1.82
2023-04-07T02:31:17.336Z,1.80
2023-04-07T02:33:46.387Z,1.67
2023-04-07T02:36:15.403Z,1.75
2023-04-07T02:38:44.429Z,1.88
2023-04-07T02:41:13.465Z,1.97
2023-04-07T02:43:42.500Z,1.81
2023-04-07T02:46:12.061Z,1.88
2023-04-07T02:48:42.977Z,2.11
2023-04-07T02:51:12.363Z,1.94
2023-04-07T02:53:41.380Z,1.82
2023-04-07T02:56:10.910Z,1.82
2023-04-07T02:58:39.943Z,1.79
2023-04-07T03:01:09.606Z,1.77
2023-04-07T03:03:39.382Z,1.84
2023-04-07T03:06:15.705Z,1.79
2023-04-07T03:08:59.326Z,1.59
2023-04-07T03:11:28.434Z,1.50
2023-04-07T03:13:59.928Z,1.74
2023-04-07T03:16:30.727Z,1.73
2023-04-07T03:19:25.882Z,1.58
2023-04-07T03:21:56.757Z,1.62
2023-04-07T03:24:25.870Z,1.73
2023-04-07T03:26:55.061Z,1.50
2023-04-07T03:29:38.417Z,1.53
2023-04-07T03:32:10.595Z,1.62
2023-04-07T03:34:40.137Z,1.53
2023-04-07T03:37:10.894Z,1.45
2023-04-07T03:39:41.196Z,1.43
2023-04-07T03:42:32.465Z,1.74
2023-04-07T03:45:07.085Z,1.71
2023-04-07T03:47:38.514Z,1.53
2023-04-07T03:50:09.732Z,1.52
2023-04-07T03:52:49.714Z,1.53
2023-04-07T03:55:32.133Z,1.52
2023-04-07T03:58:10.454Z,1.56
2023-04-07T04:00:43.906Z,1.52
2023-04-07T04:03:14.680Z,1.52
2023-04-07T04:06:04.877Z,1.50
2023-04-07T04:08:37.785Z,1.54
2023-04-07T04:11:07.758Z,1.51
2023-04-07T04:13:47.217Z,1.55
2023-04-07T04:16:16.388Z,1.57
2023-04-07T04:18:46.614Z,1.64
2023-04-07T04:21:17.446Z,1.57
2023-04-07T04:23:49.764Z,1.50
2023-04-07T04:26:19.754Z,1.74
2023-04-07T04:28:48.909Z,1.62
2023-04-07T04:31:20.591Z,1.48
2023-04-07T04:33:49.687Z,1.44
2023-04-07T04:36:18.805Z,1.35
2023-04-07T04:38:50.653Z,1.32
2023-04-07T04:41:22.072Z,1.45
2023-04-07T04:43:52.897Z,1.48
2023-04-07T04:46:26.280Z,1.58
2023-04-07T04:48:58.002Z,1.56
2023-04-07T04:51:30.964Z,1.65
2023-04-07T04:54:07.513Z,1.84
2023-04-07T04:56:37.099Z,1.71
2023-04-07T04:59:07.187Z,1.87
2023-04-07T05:01:55.666Z,1.99
2023-04-07T05:04:25.096Z,1.88
2023-04-07T05:07:02.705Z,2.10
2023-04-07T05:09:35.390Z,2.09
2023-04-07T05:12:05.831Z,2.20
2023-04-07T05:14:40.569Z,2.31
2023-04-07T05:17:11.188Z,2.28
2023-04-07T05:19:40.795Z,2.50
2023-04-07T05:22:17.037Z,2.52
2023-04-07T05:24:50.916Z,2.55
2023-04-07T05:27:22.894Z,2.56
2023-04-07T05:29:57.163Z,2.59
2023-04-07T05:32:33.741Z,2.69
2023-04-07T05:35:10.632Z,2.84
2023-04-07T05:37:44.263Z,2.88
2023-04-07T05:40:15.691Z,2.87
2023-04-07T05:42:46.106Z,2.98
2023-04-07T05:45:16.150Z,2.89
2023-04-07T05:47:50.668Z,3.09
2023-04-07T05:50:25.888Z,3.05
2023-04-07T05:52:57.141Z,3.14
2023-04-07T05:55:31.171Z,3.24
2023-04-07T05:58:01.302Z,3.20
2023-04-07T06:00:32.900Z,3.39
2023-04-07T06:03:09.044Z,3.37
2023-04-07T06:05:50.166Z,3.44
2023-04-07T06:08:22.378Z,3.62
2023-04-07T06:10:52.897Z,3.63
2023-04-07T06:13:22.028Z,3.87
2023-04-07T06:15:51.210Z,3.97
2023-04-07T06:18:20.262Z,4.01
2023-04-07T06:20:49.533Z,3.86
2023-04-07T06:23:18.597Z,4.16
2023-04-07T06:25:52.179Z,4.25
2023-04-07T06:28:22.654Z,4.37
2023-04-07T06:30:51.875Z,4.39
2023-04-07T06:33:25.589Z,4.53
2023-04-07T06:35:54.752Z,4.70
2023-04-07T06:38:23.923Z,4.80
2023-04-07T06:40:55.466Z,4.84
2023-04-07T06:43:26.172Z,5.06
2023-04-07T06:46:03.894Z,5.10
2023-04-07T06:48:33.069Z,5.27
2023-04-07T06:51:02.086Z,5.37
2023-04-07T06:53:31.132Z,5.33
2023-04-07T06:56:08.178Z,5.37
2023-04-07T06:58:39.019Z,5.61
2023-04-07T07:01:08.301Z,5.73
2023-04-07T07:03:37.360Z,5.90
2023-04-07T07:06:06.825Z,6.07
2023-04-07T07:08:35.860Z,6.27
2023-04-07T07:11:05.500Z,6.53
2023-04-07T07:13:34.552Z,6.73
2023-04-07T07:16:05.467Z,6.90
2023-04-07T07:18:34.588Z,7.18
2023-04-07T07:21:03.561Z,7.47
2023-04-07T07:23:32.795Z,7.65
2023-04-07T07:26:01.877Z,7.85
2023-04-07T07:28:33.557Z,8.07
2023-04-07T07:31:10.231Z,8.29
2023-04-07T07:33:40.562Z,8.47
2023-04-07T07:36:10.318Z,8.65
2023-04-07T07:38:40.192Z,8.85
2023-04-07T07:41:09.485Z,9.14
2023-04-07T07:43:39.633Z,9.40
2023-04-07T07:46:10.094Z,9.54
2023-04-07T07:48:39.303Z,9.73
2023-04-07T07:51:08.335Z,9.85
2023-04-07T07:53:37.426Z,9.99
2023-04-07T07:56:06.608Z,10.01
2023-04-07T07:58:37.471Z,10.08
2023-04-07T08:01:06.598Z,10.06
2023-04-07T08:03:37.538Z,10.06
2023-04-07T08:06:09.444Z,10.02
2023-04-07T08:08:38.471Z,9.85
2023-04-07T08:11:10.125Z,9.85
2023-04-07T08:13:39.256Z,9.94
2023-04-07T08:16:08.809Z,10.03
2023-04-07T08:18:41.300Z,10.23
2023-04-07T08:21:10.453Z,10.40
2023-04-07T08:23:39.574Z,10.42
2023-04-07T08:26:10.870Z,10.52
2023-04-07T08:28:40.429Z,10.68
2023-04-07T08:31:09.560Z,10.90
2023-04-07T08:33:40.385Z,10.89
2023-04-07T08:36:09.583Z,10.89
2023-04-07T08:38:41.419Z,11.07
2023-04-07T08:41:18.806Z,11.28
2023-04-07T08:43:49.725Z,11.57
2023-04-07T08:46:22.772Z,11.86
2023-04-07T08:48:54.085Z,12.16
2023-04-07T08:51:30.500Z,12.59
2023-04-07T08:54:07.385Z,12.87
2023-04-07T08:56:38.646Z,12.99
2023-04-07T08:59:13.932Z,13.35
2023-04-07T09:01:43.309Z,13.44
2023-04-07T09:04:14.332Z,13.59
2023-04-07T09:06:43.452Z,13.49
2023-04-07T09:09:13.455Z,13.55
2023-04-07T09:11:44.018Z,13.74
2023-04-07T09:14:13.714Z,13.82
2023-04-07T09:16:43.628Z,13.99
2023-04-07T09:19:14.198Z,13.91
2023-04-07T09:21:51.352Z,13.77
2023-04-07T09:24:26.116Z,13.76
2023-04-07T09:27:11.473Z,13.97
2023-04-07T09:29:42.134Z,14.22
2023-04-07T09:32:12.359Z,14.10
2023-04-07T09:34:43.238Z,14.28
2023-04-07T09:37:24.120Z,14.45
2023-04-07T09:39:54.653Z,14.38
2023-04-07T09:42:23.718Z,14.46
2023-04-07T09:44:52.980Z,14.53
2023-04-07T09:47:30.367Z,14.27
2023-04-07T09:50:06.841Z,14.24
2023-04-07T09:52:53.592Z,14.23
2023-04-07T09:55:23.748Z,14.01
2023-04-07T09:57:55.368Z,14.25
2023-04-07T10:00:25.249Z,14.28
2023-04-07T10:02:55.301Z,14.34
2023-04-07T10:05:26.516Z,14.47
2023-04-07T10:07:55.704Z,14.57
2023-04-07T10:10:25.523Z,14.67
2023-04-07T10:12:57.005Z,14.80
2023-04-07T10:15:26.734Z,15.05
2023-04-07T10:17:57.886Z,14.88
2023-04-07T10:20:29.928Z,15.09
2023-04-07T10:23:14.625Z,15.33
2023-04-07T10:25:45.965Z,15.46
2023-04-07T10:28:18.475Z,15.60
2023-04-07T10:30:50.623Z,15.68
2023-04-07T10:33:20.188Z,15.70
2023-04-07T10:36:08.472Z,15.60
2023-04-07T10:38:37.566Z,15.65
2023-04-07T10:41:35.391Z,15.86
2023-04-07T10:44:07.389Z,15.96
2023-04-07T10:47:07.114Z,16.20
2023-04-07T10:49:37.998Z,16.31
2023-04-07T10:52:30.167Z,16.56
2023-04-07T10:55:32.820Z,16.62
2023-04-07T10:58:22.876Z,16.38
2023-04-07T11:01:23.301Z,16.19
2023-04-07T11:04:01.218Z,16.34
2023-04-07T11:06:31.593Z,16.27
2023-04-07T11:09:02.125Z,16.56
2023-04-07T11:11:42.442Z,16.55
2023-04-07T11:14:11.780Z,16.93
2023-04-07T11:16:45.845Z,16.86
2023-04-07T11:19:15.171Z,16.81
2023-04-07T11:21:44.240Z,17.03
2023-04-07T11:24:33.986Z,17.27
2023-04-07T11:27:03.120Z,17.11
2023-04-07T11:29:34.832Z,17.26
2023-04-07T11:32:05.580Z,17.40
2023-04-07T11:34:36.865Z,17.61
2023-04-07T11:37:21.077Z,17.37
2023-04-07T11:39:54.893Z,17.16
2023-04-07T11:42:34.596Z,17.39
2023-04-07T11:45:05.077Z,17.30
2023-04-07T11:47:37.210Z,17.49
2023-04-07T11:50:12.119Z,17.66
2023-04-07T11:52:43.890Z,18.08
2023-04-07T11:55:24.472Z,18.47
2023-04-07T11:57:53.878Z,19.11
2023-04-07T12:00:24.987Z,19.82
2023-04-07T12:02:56.801Z,20.60
2023-04-07T12:05:28.196Z,20.57
2023-04-07T12:07:57.988Z,20.82
2023-04-07T12:10:28.874Z,20.95
2023-04-07T12:12:59.412Z,21.56
2023-04-07T12:15:28.924Z,22.32
2023-04-07T12:17:58.200Z,23.15
2023-04-07T12:20:28.474Z,23.34
2023-04-07T12:22:57.944Z,23.07
2023-04-07T12:25:28.662Z,22.15
2023-04-07T12:27:57.652Z,22.38
2023-04-07T12:30:26.697Z,22.79
2023-04-07T12:32:55.837Z,22.07
2023-04-07T12:35:25.221Z,21.48
2023-04-07T12:37:54.685Z,21.30
2023-04-07T12:40:23.848Z,20.98
2023-04-07T12:42:54.213Z,20.42
2023-04-07T12:45:23.366Z,20.90
2023-04-07T12:47:52.448Z,21.48
2023-04-07T12:50:21.477Z,21.60
2023-04-07T12:52:51.303Z,22.14
2023-04-07T12:55:20.835Z,21.55
2023-04-07T12:57:49.823Z,20.93
2023-04-07T13:00:20.420Z,20.64
2023-04-07T13:02:50.925Z,21.61
2023-04-07T13:05:20.165Z,23.73
2023-04-07T13:07:49.897Z,25.39
2023-04-07T13:10:19.399Z,25.70
2023-04-07T13:12:48.705Z,25.70
2023-04-07T13:15:19.277Z,25.03
2023-04-07T13:17:48.654Z,23.16
2023-04-07T13:20:20.175Z,22.27
2023-04-07T13:23:02.719Z,21.38
2023-04-07T13:25:36.523Z,20.49
2023-04-07T13:28:06.044Z,20.03
2023-04-07T13:30:36.506Z,20.32
2023-04-07T13:33:05.894Z,20.80
2023-04-07T13:35:36.113Z,21.40
2023-04-07T13:38:05.845Z,20.98
2023-04-07T13:40:34.957Z,21.20
2023-04-07T13:43:04.216Z,20.89
2023-04-07T13:45:33.794Z,21.35
2023-04-07T13:48:04.455Z,20.91
2023-04-07T13:50:37.175Z,20.29
2023-04-07T13:53:12.618Z,19.76
2023-04-07T13:55:42.104Z,19.70
2023-04-07T13:58:11.211Z,19.39
2023-04-07T14:00:40.443Z,19.42
2023-04-07T14:03:11.043Z,19.59
2023-04-07T14:05:40.402Z,20.08
2023-04-07T14:08:09.479Z,19.48
2023-04-07T14:10:42.151Z,19.26
2023-04-07T14:13:12.827Z,18.75
2023-04-07T14:15:41.929Z,18.17
2023-04-07T14:18:12.452Z,17.63
2023-04-07T14:20:41.604Z,17.97
2023-04-07T14:23:10.779Z,17.91
2023-04-07T14:25:39.872Z,19.06
2023-04-07T14:28:09.626Z,18.77
2023-04-07T14:30:39.087Z,17.85
2023-04-07T14:33:08.268Z,17.22
2023-04-07T14:35:39.593Z,16.66
2023-04-07T14:38:08.601Z,16.36
2023-04-07T14:40:37.752Z,15.94
2023-04-07T14:43:07.916Z,15.45
2023-04-07T14:45:37.488Z,15.16
2023-04-07T14:48:10.343Z,14.94
2023-04-07T14:50:41.326Z,14.50
2023-04-07T14:53:10.460Z,14.35
2023-04-07T14:55:41.622Z,14.26
2023-04-07T14:58:11.035Z,14.16
2023-04-07T15:00:40.146Z,14.04
2023-04-07T15:03:09.510Z,13.95
2023-04-07T15:05:40.071Z,13.82
2023-04-07T15:08:09.179Z,13.59
2023-04-07T15:10:40.322Z,13.43
2023-04-07T15:13:09.455Z,13.38
2023-04-07T15:15:38.593Z,13.44
2023-04-07T15:18:07.793Z,13.57
2023-04-07T15:20:36.836Z,13.54
2023-04-07T15:23:08.202Z,13.72
2023-04-07T15:25:37.237Z,14.19
2023-04-07T15:28:06.862Z,14.87
2023-04-07T15:30:37.147Z,15.11
2023-04-07T15:33:06.589Z,15.64
2023-04-07T15:35:36.492Z,16.00
2023-04-07T15:38:07.097Z,16.83
2023-04-07T15:40:37.710Z,17.65
2023-04-07T15:43:10.501Z,17.95
2023-04-07T15:45:44.179Z,17.41
2023-04-07T15:48:16.272Z,16.98
2023-04-07T15:50:45.533Z,17.23
2023-04-07T15:53:15.953Z,17.00
2023-04-07T15:55:45.614Z,16.19
2023-04-07T15:58:14.697Z,16.19
2023-04-07T16:00:44.734Z,15.86
2023-04-07T16:03:13.948Z,15.56
2023-04-07T16:05:43.386Z,15.59
2023-04-07T16:08:13.814Z,15.90
2023-04-07T16:10:44.530Z,16.11
2023-04-07T16:13:13.790Z,16.50
2023-04-07T16:15:43.718Z,16.52
2023-04-07T16:18:13.241Z,15.26
2023-04-07T16:20:42.494Z,13.96
2023-04-07T16:23:12.591Z,13.03
2023-04-07T16:25:43.222Z,12.29
2023-04-07T16:28:14.177Z,11.84
2023-04-07T16:30:44.212Z,11.44
2023-04-07T16:33:13.410Z,11.11
2023-04-07T16:35:42.850Z,10.87
2023-04-07T16:38:11.938Z,10.65
2023-04-07T16:40:42.742Z,10.54
2023-04-07T16:43:17.639Z,10.36
2023-04-07T16:45:52.271Z,10.08
2023-04-07T16:48:21.524Z,9.97
2023-04-07T16:50:52.199Z,9.85
2023-04-07T16:53:25.933Z,9.68
2023-04-07T16:55:55.101Z,9.69
2023-04-07T16:58:27.652Z,9.51
2023-04-07T17:00:56.781Z,9.31
2023-04-07T17:03:28.756Z,9.24
2023-04-07T17:06:03.475Z,9.18
2023-04-07T17:08:32.812Z,9.12
2023-04-07T17:11:01.855Z,9.03
2023-04-07T17:13:32.438Z,8.99
2023-04-07T17:16:03.990Z,8.92
2023-04-07T17:18:34.023Z,8.84
2023-04-07T17:21:03.163Z,8.77
2023-04-07T17:23:32.349Z,8.57
2023-04-07T17:26:01.561Z,8.56
2023-04-07T17:28:32.243Z,8.45
2023-04-07T17:31:02.925Z,8.45
2023-04-07T17:33:32.323Z,8.31
2023-04-07T17:36:03.666Z,8.19
2023-04-07T17:38:34.083Z,8.04
2023-04-07T17:41:03.310Z,7.95
2023-04-07T17:43:33.794Z,7.91
2023-04-07T17:46:04.742Z,7.86
2023-04-07T17:48:34.369Z,7.85
2023-04-07T17:51:03.434Z,7.87
2023-04-07T17:53:33.742Z,7.88
2023-04-07T17:56:02.759Z,7.83
2023-04-07T17:58:33.334Z,7.76
2023-04-07T18:01:02.738Z,7.75
2023-04-07T18:03:32.093Z,7.78
2023-04-07T18:06:01.262Z,7.74
2023-04-07T18:08:30.762Z,7.74
2023-04-07T18:10:59.832Z,7.71
2023-04-07T18:13:28.878Z,7.72
2023-04-07T18:15:59.687Z,7.83
2023-04-07T18:18:28.790Z,7.76
2023-04-07T18:20:57.812Z,7.62
2023-04-07T18:23:27.033Z,7.51
2023-04-07T18:25:56.095Z,7.45
2023-04-07T18:28:25.886Z,7.46
2023-04-07T18:31:03.810Z,7.36
2023-04-07T18:33:34.254Z,7.31
2023-04-07T18:36:07.867Z,7.40
2023-04-07T18:38:38.245Z,7.41
2023-04-07T18:41:08.701Z,7.27
2023-04-07T18:43:39.421Z,7.25
2023-04-07T18:46:10.913Z,7.22
2023-04-07T18:48:41.136Z,7.13
2023-04-07T18:51:12.823Z,7.15
2023-04-07T18:53:42.130Z,7.19
2023-04-07T18:56:11.503Z,7.15
2023-04-07T18:58:45.000Z,7.03
2023-04-07T19:01:15.858Z,6.97
2023-04-07T19:03:45.915Z,6.94
2023-04-07T19:06:15.731Z,6.88
2023-04-07T19:08:45.248Z,6.82
2023-04-07T19:11:14.598Z,6.96
2023-04-07T19:13:43.893Z,6.96
2023-04-07T19:16:13.267Z,6.91
2023-04-07T19:18:44.097Z,6.81
2023-04-07T19:21:13.737Z,6.80
2023-04-07T19:23:42.939Z,6.79
2023-04-07T19:26:13.094Z,6.82
2023-04-07T19:28:42.448Z,6.75
2023-04-07T19:31:11.973Z,6.73
2023-04-07T19:33:41.452Z,6.80
2023-04-07T19:36:12.388Z,6.68
2023-04-07T19:38:41.548Z,6.63
2023-04-07T19:41:11.135Z,6.66
2023-04-07T19:43:40.337Z,6.65
2023-04-07T19:46:09.501Z,6.62
2023-04-07T19:48:38.602Z,6.53
2023-04-07T19:51:08.318Z,6.42
2023-04-07T19:53:38.918Z,6.44
2023-04-07T19:56:08.452Z,6.38
2023-04-07T19:58:40.185Z,6.31
2023-04-07T20:01:17.845Z,6.24
2023-04-07T20:03:47.372Z,6.15
2023-04-07T20:06:17.231Z,6.07
2023-04-07T20:08:48.541Z,6.01
2023-04-07T20:11:17.928Z,5.92
2023-04-07T20:13:49.549Z,5.84
2023-04-07T20:16:18.636Z,5.81
2023-04-07T20:18:48.118Z,5.80
2023-04-07T20:21:17.450Z,5.74
2023-04-07T20:23:47.850Z,5.72
2023-04-07T20:26:17.825Z,5.73
2023-04-07T20:28:47.219Z,5.75
2023-04-07T20:31:16.829Z,5.73
2023-04-07T20:33:46.032Z,5.82
2023-04-07T20:36:15.044Z,5.80
2023-04-07T20:38:44.749Z,5.81
2023-04-07T20:41:16.713Z,5.82
2023-04-07T20:43:45.984Z,5.82
2023-04-07T20:46:15.188Z,5.79
2023-04-07T20:48:44.622Z,5.68
2023-04-07T20:51:14.382Z,5.67
2023-04-07T20:53:44.120Z,5.59
2023-04-07T20:56:14.585Z,5.54
2023-04-07T20:58:43.659Z,5.53
2023-04-07T21:01:12.740Z,5.52
2023-04-07T21:03:44.700Z,5.47
2023-04-07T21:06:16.775Z,5.43
2023-04-07T21:08:46.235Z,5.35
2023-04-07T21:11:17.095Z,5.18
2023-04-07T21:13:46.284Z,5.08
2023-04-07T21:16:15.523Z,4.98
2023-04-07T21:18:44.551Z,4.73
2023-04-07T21:21:13.696Z,4.69
2023-04-07T21:23:42.842Z,4.62
2023-04-07T21:26:12.032Z,4.55
2023-04-07T21:28:42.492Z,4.49
2023-04-07T21:31:11.839Z,4.52
2023-04-07T21:33:40.862Z,4.59
2023-04-07T21:36:09.966Z,4.65
2023-04-07T21:38:41.859Z,4.70
2023-04-07T21:41:11.542Z,4.88
2023-04-07T21:43:41.936Z,4.86
2023-04-07T21:46:11.068Z,4.78
2023-04-07T21:48:40.123Z,4.81
2023-04-07T21:51:09.354Z,4.86
2023-04-07T21:53:41.629Z,4.99
2023-04-07T21:56:10.842Z,5.08
2023-04-07T21:58:41.820Z,5.04
2023-04-07T22:01:12.283Z,4.90
2023-04-07T22:03:41.699Z,4.83
2023-04-07T22:06:10.767Z,4.74
2023-04-07T22:08:42.543Z,4.66
2023-04-07T22:11:15.587Z,4.64
2023-04-07T22:13:44.642Z,4.55
2023-04-07T22:16:16.416Z,4.64
2023-04-07T22:18:45.926Z,4.68
2023-04-07T22:21:15.689Z,4.67
2023-04-07T22:23:45.578Z,4.75
2023-04-07T22:26:14.970Z,4.77
2023-04-07T22:28:43.999Z,4.93
2023-04-07T22:31:14.517Z,4.80
2023-04-07T22:33:43.823Z,4.81
2023-04-07T22:36:12.860Z,4.81
2023-04-07T22:38:41.860Z,4.82
2023-04-07T22:41:10.921Z,4.82
2023-04-07T22:43:39.969Z,4.76
2023-04-07T22:46:08.946Z,4.78
2023-04-07T22:48:39.392Z,4.84
2023-04-07T22:51:08.723Z,4.78
2023-04-07T22:53:37.791Z,4.74
2023-04-07T22:56:07.992Z,4.74
2023-04-07T22:58:37.106Z,4.75
2023-04-07T23:01:06.492Z,4.64
2023-04-07T23:03:35.826Z,4.57
2023-04-07T23:06:06.469Z,4.60
2023-04-07T23:08:35.683Z,4.46
2023-04-07T23:11:04.679Z,4.42
2023-04-07T23:13:33.790Z,4.43
2023-04-07T23:16:03.873Z,4.45
2023-04-07T23:18:33.165Z,4.50
2023-04-07T23:21:02.279Z,4.50
2023-04-07T23:23:32.904Z,4.59
2023-04-07T23:26:01.980Z,4.67
2023-04-07T23:28:30.968Z,4.70
2023-04-07T23:30:59.989Z,4.74
2023-04-07T23:33:29.051Z,4.80
2023-04-07T23:35:58.392Z,4.84
2023-04-07T23:38:27.588Z,4.85
2023-04-07T23:40:58.020Z,4.79
2023-04-07T23:43:27.234Z,4.75
2023-04-07T23:45:56.701Z,4.70
2023-04-07T23:48:26.517Z,4.67
2023-04-07T23:50:56.052Z,4.64
2023-04-07T23:53:25.056Z,4.67
2023-04-07T23:55:54.158Z,4.69
2023-04-07T23:58:24.579Z,4.72
